sensor_id;sensor_type;location;lat;lon;timestamp;temperature;humidity
7167;DHT22;3625;51.762;14.320;2024-01-30T00:02:10;3.60;99.90
7167;DHT22;3625;51.762;14.320;2024-01-30T00:04:39;3.50;99.90
7167;DHT22;3625;51.762;14.320;2024-01-30T00:07:07;3.60;99.90
7167;DHT22;3625;51.762;14.320;2024-01-30T00:09:38;3.60;99.90
7167;DHT22;3625;51.762;14.320;2024-01-30T00:12:07;3.60;99.90
7167;DHT22;3625;51.762;14.320;2024-01-30T00:14:37;3.60;99.90
7167;DHT22;3625;51.762;14.320;2024-01-30T00:17:05;3.70;99.90
7167;DHT22;3625;51.762;14.320;2024-01-30T00:19:34;3.50;99.90
7167;DHT22;3625;51.762;14.320;2024-01-30T00:22:03;3.60;99.90
7167;DHT22;3625;51.762;14.320;2024-01-30T00:24:32;3.60;99.90
7167;DHT22;3625;51.762;14.320;2024-01-30T00:27:00;3.60;99.90
7167;DHT22;3625;51.762;14.320;2024-01-30T00:29:29;3.60;99.90
7167;DHT22;3625;51.762;14.320;2024-01-30T00:32:02;3.80;99.90
7167;DHT22;3625;51.762;14.320;2024-01-30T00:34:30;3.50;99.90
7167;DHT22;3625;51.762;14.320;2024-01-30T00:36:59;4.10;99.90
7167;DHT22;3625;51.762;14.320;2024-01-30T00:39:28;3.80;99.90
7167;DHT22;3625;51.762;14.320;2024-01-30T00:41:56;3.90;99.90
7167;DHT22;3625;51.762;14.320;2024-01-30T00:46:54;3.30;99.90
7167;DHT22;3625;51.762;14.320;2024-01-30T00:49:23;3.40;99.90
7167;DHT22;3625;51.762;14.320;2024-01-30T00:51:52;3.80;99.90
7167;DHT22;3625;51.762;14.320;2024-01-30T00:54:21;3.80;99.90
7167;DHT22;3625;51.762;14.320;2024-01-30T00:59:18;3.40;99.90
7167;DHT22;3625;51.762;14.320;2024-01-30T01:04:16;3.40;99.90
7167;DHT22;3625;51.762;14.320;2024-01-30T01:06:46;4.40;99.90
7167;DHT22;3625;51.762;14.320;2024-01-30T01:09:15;3.30;99.90
7167;DHT22;3625;51.762;14.320;2024-01-30T01:11:44;4.40;99.90
7167;DHT22;3625;51.762;14.320;2024-01-30T01:14:12;3.30;99.90
7167;DHT22;3625;51.762;14.320;2024-01-30T01:16:41;3.30;99.90
7167;DHT22;3625;51.762;14.320;2024-01-30T01:19:09;3.30;99.90
7167;DHT22;3625;51.762;14.320;2024-01-30T01:21:38;3.30;99.90
7167;DHT22;3625;51.762;14.320;2024-01-30T01:24:08;3.60;99.90
7167;DHT22;3625;51.762;14.320;2024-01-30T01:26:36;3.30;99.90
7167;DHT22;3625;51.762;14.320;2024-01-30T01:29:06;3.70;99.90
7167;DHT22;3625;51.762;14.320;2024-01-30T01:31:37;3.20;99.90
7167;DHT22;3625;51.762;14.320;2024-01-30T01:34:10;3.60;99.90
7167;DHT22;3625;51.762;14.320;2024-01-30T01:36:39;3.20;99.90
7167;DHT22;3625;51.762;14.320;2024-01-30T01:39:09;3.20;99.90
7167;DHT22;3625;51.762;14.320;2024-01-30T01:41:38;3.90;99.90
7167;DHT22;3625;51.762;14.320;2024-01-30T01:44:07;4.00;99.90
7167;DHT22;3625;51.762;14.320;2024-01-30T01:46:35;3.20;99.90
7167;DHT22;3625;51.762;14.320;2024-01-30T01:49:05;3.10;99.90
7167;DHT22;3625;51.762;14.320;2024-01-30T01:51:36;3.70;99.90
7167;DHT22;3625;51.762;14.320;2024-01-30T01:54:09;3.10;99.90
7167;DHT22;3625;51.762;14.320;2024-01-30T01:56:39;3.10;99.90
7167;DHT22;3625;51.762;14.320;2024-01-30T01:59:09;3.10;99.90
7167;DHT22;3625;51.762;14.320;2024-01-30T02:01:38;3.90;99.90
7167;DHT22;3625;51.762;14.320;2024-01-30T02:04:08;3.10;99.90
7167;DHT22;3625;51.762;14.320;2024-01-30T02:06:37;3.70;99.90
7167;DHT22;3625;51.762;14.320;2024-01-30T02:09:07;3.20;99.90
7167;DHT22;3625;51.762;14.320;2024-01-30T02:14:06;3.20;99.90
7167;DHT22;3625;51.762;14.320;2024-01-30T02:16:34;3.30;99.90
7167;DHT22;3625;51.762;14.320;2024-01-30T02:19:03;3.20;99.90
7167;DHT22;3625;51.762;14.320;2024-01-30T02:21:33;3.20;99.90
7167;DHT22;3625;51.762;14.320;2024-01-30T02:24:03;3.20;99.90
7167;DHT22;3625;51.762;14.320;2024-01-30T02:26:32;3.20;99.90
7167;DHT22;3625;51.762;14.320;2024-01-30T02:29:01;3.20;99.90
7167;DHT22;3625;51.762;14.320;2024-01-30T02:31:30;3.90;99.90
7167;DHT22;3625;51.762;14.320;2024-01-30T02:36:30;3.20;99.90
7167;DHT22;3625;51.762;14.320;2024-01-30T02:39:00;3.20;99.90
7167;DHT22;3625;51.762;14.320;2024-01-30T02:41:28;4.50;99.90
7167;DHT22;3625;51.762;14.320;2024-01-30T02:43:58;3.60;99.90
7167;DHT22;3625;51.762;14.320;2024-01-30T02:46:27;3.80;99.90
7167;DHT22;3625;51.762;14.320;2024-01-30T02:48:56;3.10;99.90
7167;DHT22;3625;51.762;14.320;2024-01-30T02:51:24;3.10;99.90
7167;DHT22;3625;51.762;14.320;2024-01-30T02:53:53;3.10;99.90
7167;DHT22;3625;51.762;14.320;2024-01-30T02:56:23;3.10;99.90
7167;DHT22;3625;51.762;14.320;2024-01-30T02:58:52;3.10;99.90
7167;DHT22;3625;51.762;14.320;2024-01-30T03:01:20;3.20;99.90
7167;DHT22;3625;51.762;14.320;2024-01-30T03:03:50;3.20;99.90
7167;DHT22;3625;51.762;14.320;2024-01-30T03:06:19;3.00;99.90
7167;DHT22;3625;51.762;14.320;2024-01-30T03:08:48;2.90;99.90
7167;DHT22;3625;51.762;14.320;2024-01-30T03:11:19;3.00;99.90
7167;DHT22;3625;51.762;14.320;2024-01-30T03:13:49;3.00;99.90
7167;DHT22;3625;51.762;14.320;2024-01-30T03:16:17;3.00;99.90
7167;DHT22;3625;51.762;14.320;2024-01-30T03:18:46;3.40;99.90
7167;DHT22;3625;51.762;14.320;2024-01-30T03:21:15;2.90;99.90
7167;DHT22;3625;51.762;14.320;2024-01-30T03:23:44;3.00;99.90
7167;DHT22;3625;51.762;14.320;2024-01-30T03:26:12;3.20;99.90
7167;DHT22;3625;51.762;14.320;2024-01-30T03:28:42;3.00;99.90
7167;DHT22;3625;51.762;14.320;2024-01-30T03:31:15;3.00;99.90
7167;DHT22;3625;51.762;14.320;2024-01-30T03:33:44;2.90;99.90
7167;DHT22;3625;51.762;14.320;2024-01-30T03:36:13;2.90;99.90
7167;DHT22;3625;51.762;14.320;2024-01-30T03:38:43;2.90;99.90
7167;DHT22;3625;51.762;14.320;2024-01-30T03:41:11;2.80;99.90
7167;DHT22;3625;51.762;14.320;2024-01-30T03:43:41;2.80;99.90
7167;DHT22;3625;51.762;14.320;2024-01-30T03:46:11;2.80;99.90
7167;DHT22;3625;51.762;14.320;2024-01-30T03:48:41;2.80;99.90
7167;DHT22;3625;51.762;14.320;2024-01-30T03:51:10;2.90;99.90
7167;DHT22;3625;51.762;14.320;2024-01-30T03:53:41;2.90;99.90
7167;DHT22;3625;51.762;14.320;2024-01-30T03:56:10;2.80;99.90
7167;DHT22;3625;51.762;14.320;2024-01-30T03:58:40;2.50;99.90
7167;DHT22;3625;51.762;14.320;2024-01-30T04:01:14;2.80;99.90
7167;DHT22;3625;51.762;14.320;2024-01-30T04:03:43;2.70;99.90
7167;DHT22;3625;51.762;14.320;2024-01-30T04:06:12;2.80;99.90
7167;DHT22;3625;51.762;14.320;2024-01-30T04:08:41;2.80;99.90
7167;DHT22;3625;51.762;14.320;2024-01-30T04:11:09;2.80;99.90
7167;DHT22;3625;51.762;14.320;2024-01-30T04:13:38;2.80;99.90
7167;DHT22;3625;51.762;14.320;2024-01-30T04:16:07;2.80;99.90
7167;DHT22;3625;51.762;14.320;2024-01-30T04:18:37;2.80;99.90
7167;DHT22;3625;51.762;14.320;2024-01-30T04:21:06;2.80;99.90
7167;DHT22;3625;51.762;14.320;2024-01-30T04:23:34;2.70;99.90
7167;DHT22;3625;51.762;14.320;2024-01-30T04:26:03;2.80;99.90
7167;DHT22;3625;51.762;14.320;2024-01-30T04:28:35;2.80;99.90
7167;DHT22;3625;51.762;14.320;2024-01-30T04:31:04;4.20;99.90
7167;DHT22;3625;51.762;14.320;2024-01-30T04:33:33;2.80;99.90
7167;DHT22;3625;51.762;14.320;2024-01-30T04:36:04;2.80;99.90
7167;DHT22;3625;51.762;14.320;2024-01-30T04:38:36;2.80;99.90
7167;DHT22;3625;51.762;14.320;2024-01-30T04:41:05;2.70;99.90
7167;DHT22;3625;51.762;14.320;2024-01-30T04:43:34;2.70;99.90
7167;DHT22;3625;51.762;14.320;2024-01-30T04:46:04;2.70;99.90
7167;DHT22;3625;51.762;14.320;2024-01-30T04:48:33;2.80;99.90
7167;DHT22;3625;51.762;14.320;2024-01-30T04:51:03;2.80;99.90
7167;DHT22;3625;51.762;14.320;2024-01-30T04:53:32;2.80;99.90
7167;DHT22;3625;51.762;14.320;2024-01-30T04:56:00;2.80;99.90
7167;DHT22;3625;51.762;14.320;2024-01-30T05:00:58;2.70;99.90
7167;DHT22;3625;51.762;14.320;2024-01-30T05:03:26;2.80;99.90
7167;DHT22;3625;51.762;14.320;2024-01-30T05:05:57;2.80;99.90
7167;DHT22;3625;51.762;14.320;2024-01-30T05:08:29;2.80;99.90
7167;DHT22;3625;51.762;14.320;2024-01-30T05:11:00;4.30;99.90
7167;DHT22;3625;51.762;14.320;2024-01-30T05:16:02;2.70;99.90
7167;DHT22;3625;51.762;14.320;2024-01-30T05:18:31;2.70;99.90
7167;DHT22;3625;51.762;14.320;2024-01-30T05:23:34;2.80;99.90
7167;DHT22;3625;51.762;14.320;2024-01-30T05:31:04;2.70;99.90
7167;DHT22;3625;51.762;14.320;2024-01-30T05:33:33;2.10;99.90
7167;DHT22;3625;51.762;14.320;2024-01-30T05:36:02;2.80;99.90
7167;DHT22;3625;51.762;14.320;2024-01-30T05:38:31;2.80;99.90
7167;DHT22;3625;51.762;14.320;2024-01-30T05:41:02;2.80;99.90
7167;DHT22;3625;51.762;14.320;2024-01-30T05:45:59;2.70;99.90
7167;DHT22;3625;51.762;14.320;2024-01-30T05:48:28;2.70;99.90
7167;DHT22;3625;51.762;14.320;2024-01-30T05:50:58;2.70;99.90
7167;DHT22;3625;51.762;14.320;2024-01-30T05:53:28;2.70;99.90
7167;DHT22;3625;51.762;14.320;2024-01-30T05:55:56;2.70;99.90
7167;DHT22;3625;51.762;14.320;2024-01-30T05:58:26;2.70;99.90
7167;DHT22;3625;51.762;14.320;2024-01-30T06:00:55;2.70;99.90
7167;DHT22;3625;51.762;14.320;2024-01-30T06:03:25;2.70;99.90
7167;DHT22;3625;51.762;14.320;2024-01-30T06:05:53;2.70;99.90
7167;DHT22;3625;51.762;14.320;2024-01-30T06:08:22;2.70;99.90
7167;DHT22;3625;51.762;14.320;2024-01-30T06:10:51;2.70;99.90
7167;DHT22;3625;51.762;14.320;2024-01-30T06:13:20;2.70;99.90
7167;DHT22;3625;51.762;14.320;2024-01-30T06:15:50;2.70;99.90
7167;DHT22;3625;51.762;14.320;2024-01-30T06:18:19;2.70;99.90
7167;DHT22;3625;51.762;14.320;2024-01-30T06:20:47;2.60;99.90
7167;DHT22;3625;51.762;14.320;2024-01-30T06:23:16;2.60;99.90
7167;DHT22;3625;51.762;14.320;2024-01-30T06:25:44;2.60;99.90
7167;DHT22;3625;51.762;14.320;2024-01-30T06:28:14;2.70;99.90
7167;DHT22;3625;51.762;14.320;2024-01-30T06:30:43;2.70;99.90
7167;DHT22;3625;51.762;14.320;2024-01-30T06:33:13;2.70;99.90
7167;DHT22;3625;51.762;14.320;2024-01-30T06:35:42;2.70;99.90
7167;DHT22;3625;51.762;14.320;2024-01-30T06:38:12;2.70;99.90
7167;DHT22;3625;51.762;14.320;2024-01-30T06:40:42;2.70;99.90
7167;DHT22;3625;51.762;14.320;2024-01-30T06:43:11;2.80;99.90
7167;DHT22;3625;51.762;14.320;2024-01-30T06:45:40;2.80;99.90
7167;DHT22;3625;51.762;14.320;2024-01-30T06:50:40;2.80;99.90
7167;DHT22;3625;51.762;14.320;2024-01-30T06:53:08;2.80;99.90
7167;DHT22;3625;51.762;14.320;2024-01-30T06:55:37;2.80;99.90
7167;DHT22;3625;51.762;14.320;2024-01-30T06:58:08;2.80;99.90
7167;DHT22;3625;51.762;14.320;2024-01-30T07:00:37;2.80;99.90
7167;DHT22;3625;51.762;14.320;2024-01-30T07:03:06;2.80;99.90
7167;DHT22;3625;51.762;14.320;2024-01-30T07:05:34;2.90;99.90
7167;DHT22;3625;51.762;14.320;2024-01-30T07:08:05;2.90;99.90
7167;DHT22;3625;51.762;14.320;2024-01-30T07:10:34;3.00;99.90
7167;DHT22;3625;51.762;14.320;2024-01-30T07:13:03;3.00;99.90
7167;DHT22;3625;51.762;14.320;2024-01-30T07:15:33;3.10;99.90
7167;DHT22;3625;51.762;14.320;2024-01-30T07:18:01;3.10;99.90
7167;DHT22;3625;51.762;14.320;2024-01-30T07:20:30;3.20;99.90
7167;DHT22;3625;51.762;14.320;2024-01-30T07:22:59;3.30;99.90
7167;DHT22;3625;51.762;14.320;2024-01-30T07:25:30;3.30;99.90
7167;DHT22;3625;51.762;14.320;2024-01-30T07:30:29;3.40;99.90
7167;DHT22;3625;51.762;14.320;2024-01-30T07:32:58;3.40;99.90
7167;DHT22;3625;51.762;14.320;2024-01-30T07:35:27;3.50;99.90
7167;DHT22;3625;51.762;14.320;2024-01-30T07:37:55;3.60;99.90
7167;DHT22;3625;51.762;14.320;2024-01-30T07:40:24;3.60;99.90
7167;DHT22;3625;51.762;14.320;2024-01-30T07:42:54;3.70;99.90
7167;DHT22;3625;51.762;14.320;2024-01-30T07:47:54;3.80;99.90
7167;DHT22;3625;51.762;14.320;2024-01-30T07:50:23;3.90;99.90
7167;DHT22;3625;51.762;14.320;2024-01-30T07:52:51;3.90;99.90
7167;DHT22;3625;51.762;14.320;2024-01-30T07:55:21;4.10;99.90
7167;DHT22;3625;51.762;14.320;2024-01-30T07:57:53;4.10;99.90
7167;DHT22;3625;51.762;14.320;2024-01-30T08:00:31;4.20;99.90
7167;DHT22;3625;51.762;14.320;2024-01-30T08:03:00;4.20;99.90
7167;DHT22;3625;51.762;14.320;2024-01-30T08:05:29;4.30;99.90
7167;DHT22;3625;51.762;14.320;2024-01-30T08:07:58;4.40;99.90
7167;DHT22;3625;51.762;14.320;2024-01-30T08:10:26;4.50;99.90
7167;DHT22;3625;51.762;14.320;2024-01-30T08:12:59;4.50;99.90
7167;DHT22;3625;51.762;14.320;2024-01-30T08:15:28;4.60;99.90
7167;DHT22;3625;51.762;14.320;2024-01-30T08:17:56;4.70;99.90
7167;DHT22;3625;51.762;14.320;2024-01-30T08:20:26;4.70;99.90
7167;DHT22;3625;51.762;14.320;2024-01-30T08:22:54;4.80;99.90
7167;DHT22;3625;51.762;14.320;2024-01-30T08:25:23;4.90;99.90
7167;DHT22;3625;51.762;14.320;2024-01-30T08:27:54;4.90;99.90
7167;DHT22;3625;51.762;14.320;2024-01-30T08:30:26;5.00;99.90
7167;DHT22;3625;51.762;14.320;2024-01-30T08:32:55;5.00;99.90
7167;DHT22;3625;51.762;14.320;2024-01-30T08:35:25;7.20;99.90
7167;DHT22;3625;51.762;14.320;2024-01-30T08:37:54;5.10;99.90
7167;DHT22;3625;51.762;14.320;2024-01-30T08:40:23;5.20;99.90
7167;DHT22;3625;51.762;14.320;2024-01-30T08:42:52;5.20;99.90
7167;DHT22;3625;51.762;14.320;2024-01-30T08:45:22;5.30;99.90
7167;DHT22;3625;51.762;14.320;2024-01-30T08:47:50;5.40;99.90
7167;DHT22;3625;51.762;14.320;2024-01-30T08:50:19;5.50;99.90
7167;DHT22;3625;51.762;14.320;2024-01-30T08:52:48;5.50;99.90
7167;DHT22;3625;51.762;14.320;2024-01-30T08:55:16;5.50;99.90
7167;DHT22;3625;51.762;14.320;2024-01-30T08:57:45;5.60;99.90
7167;DHT22;3625;51.762;14.320;2024-01-30T09:00:14;5.60;99.90
7167;DHT22;3625;51.762;14.320;2024-01-30T09:02:45;5.70;99.90
7167;DHT22;3625;51.762;14.320;2024-01-30T09:05:14;5.70;99.90
7167;DHT22;3625;51.762;14.320;2024-01-30T09:07:42;5.70;99.90
7167;DHT22;3625;51.762;14.320;2024-01-30T09:10:12;5.70;99.90
7167;DHT22;3625;51.762;14.320;2024-01-30T09:12:42;5.70;99.90
7167;DHT22;3625;51.762;14.320;2024-01-30T09:15:11;5.20;99.90
7167;DHT22;3625;51.762;14.320;2024-01-30T09:17:40;5.80;99.90
7167;DHT22;3625;51.762;14.320;2024-01-30T09:20:11;5.80;99.90
7167;DHT22;3625;51.762;14.320;2024-01-30T09:22:40;5.90;99.90
7167;DHT22;3625;51.762;14.320;2024-01-30T09:25:08;5.80;99.90
7167;DHT22;3625;51.762;14.320;2024-01-30T09:27:37;5.80;99.90
7167;DHT22;3625;51.762;14.320;2024-01-30T09:30:08;5.90;99.90
7167;DHT22;3625;51.762;14.320;2024-01-30T09:32:37;5.90;99.90
7167;DHT22;3625;51.762;14.320;2024-01-30T09:35:08;5.90;99.90
7167;DHT22;3625;51.762;14.320;2024-01-30T09:37:38;6.00;99.90
7167;DHT22;3625;51.762;14.320;2024-01-30T09:40:08;6.00;99.90
7167;DHT22;3625;51.762;14.320;2024-01-30T09:42:37;6.10;99.90
7167;DHT22;3625;51.762;14.320;2024-01-30T09:45:06;6.10;99.90
7167;DHT22;3625;51.762;14.320;2024-01-30T09:47:40;6.30;99.90
7167;DHT22;3625;51.762;14.320;2024-01-30T09:50:13;6.20;99.90
7167;DHT22;3625;51.762;14.320;2024-01-30T09:52:44;6.30;99.90
7167;DHT22;3625;51.762;14.320;2024-01-30T09:55:13;6.40;99.90
7167;DHT22;3625;51.762;14.320;2024-01-30T09:57:42;6.40;99.90
7167;DHT22;3625;51.762;14.320;2024-01-30T10:00:12;6.50;99.90
7167;DHT22;3625;51.762;14.320;2024-01-30T10:02:42;6.50;99.90
7167;DHT22;3625;51.762;14.320;2024-01-30T10:05:15;6.60;99.90
7167;DHT22;3625;51.762;14.320;2024-01-30T10:07:53;6.70;99.90
7167;DHT22;3625;51.762;14.320;2024-01-30T10:10:23;6.70;99.90
7167;DHT22;3625;51.762;14.320;2024-01-30T10:12:51;6.90;99.90
7167;DHT22;3625;51.762;14.320;2024-01-30T10:15:20;7.00;99.90
7167;DHT22;3625;51.762;14.320;2024-01-30T10:17:49;7.00;99.90
7167;DHT22;3625;51.762;14.320;2024-01-30T10:20:19;7.10;99.90
7167;DHT22;3625;51.762;14.320;2024-01-30T10:22:49;7.20;99.90
7167;DHT22;3625;51.762;14.320;2024-01-30T10:25:18;7.30;99.90
7167;DHT22;3625;51.762;14.320;2024-01-30T10:27:47;7.40;99.90
7167;DHT22;3625;51.762;14.320;2024-01-30T10:30:21;7.40;99.90
7167;DHT22;3625;51.762;14.320;2024-01-30T10:32:50;7.50;99.90
7167;DHT22;3625;51.762;14.320;2024-01-30T10:35:21;7.50;99.90
7167;DHT22;3625;51.762;14.320;2024-01-30T10:37:50;7.60;99.90
7167;DHT22;3625;51.762;14.320;2024-01-30T10:40:21;7.70;99.90
7167;DHT22;3625;51.762;14.320;2024-01-30T10:42:56;7.70;99.90
7167;DHT22;3625;51.762;14.320;2024-01-30T10:45:31;7.70;99.90
7167;DHT22;3625;51.762;14.320;2024-01-30T10:48:00;7.80;99.90
7167;DHT22;3625;51.762;14.320;2024-01-30T10:50:33;7.80;99.90
7167;DHT22;3625;51.762;14.320;2024-01-30T10:53:18;7.90;99.90
7167;DHT22;3625;51.762;14.320;2024-01-30T10:55:47;7.90;99.90
7167;DHT22;3625;51.762;14.320;2024-01-30T10:58:18;7.90;99.90
7167;DHT22;3625;51.762;14.320;2024-01-30T11:00:49;7.90;99.90
7167;DHT22;3625;51.762;14.320;2024-01-30T11:03:19;8.10;99.90
7167;DHT22;3625;51.762;14.320;2024-01-30T11:05:51;8.20;99.90
7167;DHT22;3625;51.762;14.320;2024-01-30T11:08:24;8.20;99.90
7167;DHT22;3625;51.762;14.320;2024-01-30T11:10:56;8.30;99.90
7167;DHT22;3625;51.762;14.320;2024-01-30T11:13:27;8.60;99.90
7167;DHT22;3625;51.762;14.320;2024-01-30T11:16:00;8.60;99.90
7167;DHT22;3625;51.762;14.320;2024-01-30T11:18:31;8.70;99.90
7167;DHT22;3625;51.762;14.320;2024-01-30T11:21:04;8.90;99.90
7167;DHT22;3625;51.762;14.320;2024-01-30T11:23:34;9.00;99.90
7167;DHT22;3625;51.762;14.320;2024-01-30T11:26:04;9.10;99.90
7167;DHT22;3625;51.762;14.320;2024-01-30T11:28:33;9.20;99.90
7167;DHT22;3625;51.762;14.320;2024-01-30T11:31:06;9.40;99.90
7167;DHT22;3625;51.762;14.320;2024-01-30T11:33:35;9.40;99.90
7167;DHT22;3625;51.762;14.320;2024-01-30T11:36:07;9.50;99.90
7167;DHT22;3625;51.762;14.320;2024-01-30T11:38:37;9.70;99.90
7167;DHT22;3625;51.762;14.320;2024-01-30T11:41:08;9.70;99.90
7167;DHT22;3625;51.762;14.320;2024-01-30T11:43:37;9.80;99.90
7167;DHT22;3625;51.762;14.320;2024-01-30T11:46:06;10.00;99.90
7167;DHT22;3625;51.762;14.320;2024-01-30T11:48:37;10.20;99.90
7167;DHT22;3625;51.762;14.320;2024-01-30T11:51:07;10.50;99.90
7167;DHT22;3625;51.762;14.320;2024-01-30T11:53:35;10.50;99.90
7167;DHT22;3625;51.762;14.320;2024-01-30T11:56:06;10.50;99.90
7167;DHT22;3625;51.762;14.320;2024-01-30T11:58:35;10.50;99.90
7167;DHT22;3625;51.762;14.320;2024-01-30T12:01:04;10.40;99.90
7167;DHT22;3625;51.762;14.320;2024-01-30T12:03:33;10.40;99.90
7167;DHT22;3625;51.762;14.320;2024-01-30T12:06:03;10.30;99.90
7167;DHT22;3625;51.762;14.320;2024-01-30T12:08:34;10.20;99.90
7167;DHT22;3625;51.762;14.320;2024-01-30T12:11:02;10.10;99.90
7167;DHT22;3625;51.762;14.320;2024-01-30T12:13:34;10.20;99.90
7167;DHT22;3625;51.762;14.320;2024-01-30T12:16:04;10.20;99.90
7167;DHT22;3625;51.762;14.320;2024-01-30T12:18:33;10.30;99.90
7167;DHT22;3625;51.762;14.320;2024-01-30T12:21:02;10.30;99.90
7167;DHT22;3625;51.762;14.320;2024-01-30T12:23:32;10.30;99.90
7167;DHT22;3625;51.762;14.320;2024-01-30T12:26:01;10.40;99.90
7167;DHT22;3625;51.762;14.320;2024-01-30T12:28:34;10.60;99.90
7167;DHT22;3625;51.762;14.320;2024-01-30T12:31:03;10.60;99.90
7167;DHT22;3625;51.762;14.320;2024-01-30T12:33:32;10.50;99.90
7167;DHT22;3625;51.762;14.320;2024-01-30T12:36:02;10.50;99.90
7167;DHT22;3625;51.762;14.320;2024-01-30T12:38:32;10.60;99.90
7167;DHT22;3625;51.762;14.320;2024-01-30T12:41:01;10.50;99.90
7167;DHT22;3625;51.762;14.320;2024-01-30T12:43:30;10.50;99.90
7167;DHT22;3625;51.762;14.320;2024-01-30T12:46:05;10.50;99.90
7167;DHT22;3625;51.762;14.320;2024-01-30T12:48:34;10.40;99.90
7167;DHT22;3625;51.762;14.320;2024-01-30T12:51:03;10.20;99.90
7167;DHT22;3625;51.762;14.320;2024-01-30T12:53:34;10.00;99.90
7167;DHT22;3625;51.762;14.320;2024-01-30T12:56:03;9.90;99.90
7167;DHT22;3625;51.762;14.320;2024-01-30T12:58:32;9.90;99.90
7167;DHT22;3625;51.762;14.320;2024-01-30T13:01:01;8.50;99.90
7167;DHT22;3625;51.762;14.320;2024-01-30T13:03:30;9.70;99.90
7167;DHT22;3625;51.762;14.320;2024-01-30T13:06:00;9.60;99.90
7167;DHT22;3625;51.762;14.320;2024-01-30T13:08:29;9.40;99.90
7167;DHT22;3625;51.762;14.320;2024-01-30T13:10:59;9.30;99.90
7167;DHT22;3625;51.762;14.320;2024-01-30T13:13:27;9.20;99.90
7167;DHT22;3625;51.762;14.320;2024-01-30T13:15:57;9.10;99.90
7167;DHT22;3625;51.762;14.320;2024-01-30T13:18:26;9.10;99.90
7167;DHT22;3625;51.762;14.320;2024-01-30T13:20:54;9.10;99.90
7167;DHT22;3625;51.762;14.320;2024-01-30T13:23:24;9.10;99.90
7167;DHT22;3625;51.762;14.320;2024-01-30T13:25:52;9.10;99.90
7167;DHT22;3625;51.762;14.320;2024-01-30T13:28:26;9.10;99.90
7167;DHT22;3625;51.762;14.320;2024-01-30T13:30:56;9.00;99.90
7167;DHT22;3625;51.762;14.320;2024-01-30T13:33:25;9.00;99.90
7167;DHT22;3625;51.762;14.320;2024-01-30T13:35:54;9.00;99.90
7167;DHT22;3625;51.762;14.320;2024-01-30T13:38:23;8.90;99.90
7167;DHT22;3625;51.762;14.320;2024-01-30T13:40:52;8.90;99.90
7167;DHT22;3625;51.762;14.320;2024-01-30T13:43:20;8.80;99.90
7167;DHT22;3625;51.762;14.320;2024-01-30T13:45:50;8.80;99.90
7167;DHT22;3625;51.762;14.320;2024-01-30T13:48:19;8.70;99.90
7167;DHT22;3625;51.762;14.320;2024-01-30T13:50:48;8.70;99.90
7167;DHT22;3625;51.762;14.320;2024-01-30T13:53:17;8.70;99.90
7167;DHT22;3625;51.762;14.320;2024-01-30T13:55:46;8.70;99.90
7167;DHT22;3625;51.762;14.320;2024-01-30T13:58:15;8.70;99.90
7167;DHT22;3625;51.762;14.320;2024-01-30T14:00:43;8.70;99.90
7167;DHT22;3625;51.762;14.320;2024-01-30T14:03:14;8.70;99.90
7167;DHT22;3625;51.762;14.320;2024-01-30T14:05:42;8.70;99.90
7167;DHT22;3625;51.762;14.320;2024-01-30T14:08:13;8.70;99.90
7167;DHT22;3625;51.762;14.320;2024-01-30T14:10:41;8.70;99.90
7167;DHT22;3625;51.762;14.320;2024-01-30T14:13:10;8.70;99.90
7167;DHT22;3625;51.762;14.320;2024-01-30T14:15:39;8.70;99.90
7167;DHT22;3625;51.762;14.320;2024-01-30T14:18:10;8.70;99.90
7167;DHT22;3625;51.762;14.320;2024-01-30T14:20:41;8.60;99.90
7167;DHT22;3625;51.762;14.320;2024-01-30T14:23:10;8.70;99.90
7167;DHT22;3625;51.762;14.320;2024-01-30T14:25:38;8.60;99.90
7167;DHT22;3625;51.762;14.320;2024-01-30T14:28:07;8.50;99.90
7167;DHT22;3625;51.762;14.320;2024-01-30T14:30:36;8.50;99.90
7167;DHT22;3625;51.762;14.320;2024-01-30T14:33:05;8.40;99.90
7167;DHT22;3625;51.762;14.320;2024-01-30T14:35:36;8.30;99.90
7167;DHT22;3625;51.762;14.320;2024-01-30T14:40:35;8.20;99.90
7167;DHT22;3625;51.762;14.320;2024-01-30T14:43:04;8.20;99.90
7167;DHT22;3625;51.762;14.320;2024-01-30T14:45:33;8.10;99.90
7167;DHT22;3625;51.762;14.320;2024-01-30T14:48:01;8.00;99.90
7167;DHT22;3625;51.762;14.320;2024-01-30T14:50:30;8.00;99.90
7167;DHT22;3625;51.762;14.320;2024-01-30T14:53:00;7.90;99.90
7167;DHT22;3625;51.762;14.320;2024-01-30T14:55:29;7.90;99.90
7167;DHT22;3625;51.762;14.320;2024-01-30T14:58:00;7.80;99.90
7167;DHT22;3625;51.762;14.320;2024-01-30T15:00:34;7.80;99.90
7167;DHT22;3625;51.762;14.320;2024-01-30T15:03:05;7.80;99.90
7167;DHT22;3625;51.762;14.320;2024-01-30T15:05:34;7.70;99.90
7167;DHT22;3625;51.762;14.320;2024-01-30T15:08:04;7.70;99.90
7167;DHT22;3625;51.762;14.320;2024-01-30T15:10:33;7.50;99.90
7167;DHT22;3625;51.762;14.320;2024-01-30T15:13:02;7.40;99.90
7167;DHT22;3625;51.762;14.320;2024-01-30T15:15:31;7.30;99.90
7167;DHT22;3625;51.762;14.320;2024-01-30T15:18:01;9.10;99.90
7167;DHT22;3625;51.762;14.320;2024-01-30T15:20:31;7.20;99.90
7167;DHT22;3625;51.762;14.320;2024-01-30T15:23:00;7.10;99.90
7167;DHT22;3625;51.762;14.320;2024-01-30T15:25:30;6.90;99.90
7167;DHT22;3625;51.762;14.320;2024-01-30T15:28:01;6.90;99.90
7167;DHT22;3625;51.762;14.320;2024-01-30T15:30:51;5.50;99.90
7167;DHT22;3625;51.762;14.320;2024-01-30T15:33:20;6.80;99.90
7167;DHT22;3625;51.762;14.320;2024-01-30T15:35:49;6.70;99.90
7167;DHT22;3625;51.762;14.320;2024-01-30T15:38:18;6.60;99.90
7167;DHT22;3625;51.762;14.320;2024-01-30T15:40:49;6.60;99.90
7167;DHT22;3625;51.762;14.320;2024-01-30T15:43:18;6.50;99.90
7167;DHT22;3625;51.762;14.320;2024-01-30T15:45:47;6.50;99.90
7167;DHT22;3625;51.762;14.320;2024-01-30T15:48:19;6.40;99.90
7167;DHT22;3625;51.762;14.320;2024-01-30T15:50:48;6.30;99.90
7167;DHT22;3625;51.762;14.320;2024-01-30T15:53:19;6.30;99.90
7167;DHT22;3625;51.762;14.320;2024-01-30T15:55:54;4.70;99.90
7167;DHT22;3625;51.762;14.320;2024-01-30T15:58:23;6.20;99.90
7167;DHT22;3625;51.762;14.320;2024-01-30T16:00:55;8.10;99.90
7167;DHT22;3625;51.762;14.320;2024-01-30T16:03:24;6.20;99.90
7167;DHT22;3625;51.762;14.320;2024-01-30T16:05:55;6.10;99.90
7167;DHT22;3625;51.762;14.320;2024-01-30T16:08:24;6.10;99.90
7167;DHT22;3625;51.762;14.320;2024-01-30T16:10:54;6.10;99.90
7167;DHT22;3625;51.762;14.320;2024-01-30T16:13:22;6.10;99.90
7167;DHT22;3625;51.762;14.320;2024-01-30T16:15:51;6.10;99.90
7167;DHT22;3625;51.762;14.320;2024-01-30T16:18:20;6.10;99.90
7167;DHT22;3625;51.762;14.320;2024-01-30T16:20:49;6.10;99.90
7167;DHT22;3625;51.762;14.320;2024-01-30T16:23:17;6.20;99.90
7167;DHT22;3625;51.762;14.320;2024-01-30T16:25:46;6.10;99.90
7167;DHT22;3625;51.762;14.320;2024-01-30T16:28:16;6.20;99.90
7167;DHT22;3625;51.762;14.320;2024-01-30T16:30:45;6.20;99.90
7167;DHT22;3625;51.762;14.320;2024-01-30T16:33:14;6.20;99.90
7167;DHT22;3625;51.762;14.320;2024-01-30T16:35:45;6.20;99.90
7167;DHT22;3625;51.762;14.320;2024-01-30T16:38:15;6.20;99.90
7167;DHT22;3625;51.762;14.320;2024-01-30T16:40:44;6.20;99.90
7167;DHT22;3625;51.762;14.320;2024-01-30T16:43:13;6.10;99.90
7167;DHT22;3625;51.762;14.320;2024-01-30T16:45:45;6.10;99.90
7167;DHT22;3625;51.762;14.320;2024-01-30T16:50:45;6.50;99.90
7167;DHT22;3625;51.762;14.320;2024-01-30T16:53:15;6.00;99.90
7167;DHT22;3625;51.762;14.320;2024-01-30T16:55:44;6.00;99.90